sensor_id;sensor_type;location;lat;lon;timestamp;temperature;humidity
5711;DHT22;61291;52.524;13.422;2022-07-06T00:01:49;16.90;71.50
5711;DHT22;61291;52.524;13.422;2022-07-06T00:04:19;16.80;70.90
5711;DHT22;61291;52.524;13.422;2022-07-06T00:06:45;16.90;71.80
5711;DHT22;61291;52.524;13.422;2022-07-06T00:09:10;16.90;71.70
5711;DHT22;61291;52.524;13.422;2022-07-06T00:11:36;16.80;71.80
5711;DHT22;61291;52.524;13.422;2022-07-06T00:14:02;16.90;72.00
5711;DHT22;61291;52.524;13.422;2022-07-06T00:16:28;16.80;71.90
5711;DHT22;61291;52.524;13.422;2022-07-06T00:18:54;16.70;72.40
5711;DHT22;61291;52.524;13.422;2022-07-06T00:21:19;16.60;72.60
5711;DHT22;61291;52.524;13.422;2022-07-06T00:23:45;16.60;72.90
5711;DHT22;61291;52.524;13.422;2022-07-06T00:26:10;16.60;73.20
5711;DHT22;61291;52.524;13.422;2022-07-06T00:28:36;16.60;73.40
5711;DHT22;61291;52.524;13.422;2022-07-06T00:31:02;16.60;73.60
5711;DHT22;61291;52.524;13.422;2022-07-06T00:33:27;16.50;73.30
5711;DHT22;61291;52.524;13.422;2022-07-06T00:35:53;16.40;73.90
5711;DHT22;61291;52.524;13.422;2022-07-06T00:38:18;16.40;74.20
5711;DHT22;61291;52.524;13.422;2022-07-06T00:40:44;16.40;74.30
5711;DHT22;61291;52.524;13.422;2022-07-06T00:43:09;16.50;74.40
5711;DHT22;61291;52.524;13.422;2022-07-06T00:45:35;16.40;74.50
5711;DHT22;61291;52.524;13.422;2022-07-06T00:48:00;16.40;74.90
5711;DHT22;61291;52.524;13.422;2022-07-06T00:50:26;16.40;74.90
5711;DHT22;61291;52.524;13.422;2022-07-06T00:53:02;16.30;74.90
5711;DHT22;61291;52.524;13.422;2022-07-06T00:55:31;16.30;75.20
5711;DHT22;61291;52.524;13.422;2022-07-06T00:57:57;16.30;75.50
5711;DHT22;61291;52.524;13.422;2022-07-06T01:00:25;16.40;75.70
5711;DHT22;61291;52.524;13.422;2022-07-06T01:02:52;16.40;75.50
5711;DHT22;61291;52.524;13.422;2022-07-06T01:05:18;16.40;75.50
5711;DHT22;61291;52.524;13.422;2022-07-06T01:07:45;16.40;75.50
5711;DHT22;61291;52.524;13.422;2022-07-06T01:10:12;16.50;75.90
5711;DHT22;61291;52.524;13.422;2022-07-06T01:12:40;16.50;75.50
5711;DHT22;61291;52.524;13.422;2022-07-06T01:15:14;16.50;75.50
5711;DHT22;61291;52.524;13.422;2022-07-06T01:17:40;16.50;75.40
5711;DHT22;61291;52.524;13.422;2022-07-06T01:20:23;16.50;75.40
5711;DHT22;61291;52.524;13.422;2022-07-06T01:22:51;16.40;75.30
5711;DHT22;61291;52.524;13.422;2022-07-06T01:25:18;16.30;75.40
5711;DHT22;61291;52.524;13.422;2022-07-06T01:27:45;16.30;75.80
5711;DHT22;61291;52.524;13.422;2022-07-06T01:30:16;16.20;75.80
5711;DHT22;61291;52.524;13.422;2022-07-06T01:32:43;16.20;75.90
5711;DHT22;61291;52.524;13.422;2022-07-06T01:35:11;16.10;76.00
5711;DHT22;61291;52.524;13.422;2022-07-06T01:37:37;16.10;76.50
5711;DHT22;61291;52.524;13.422;2022-07-06T01:40:05;16.20;76.50
5711;DHT22;61291;52.524;13.422;2022-07-06T01:42:31;16.20;76.30
5711;DHT22;61291;52.524;13.422;2022-07-06T01:44:57;16.20;76.20
5711;DHT22;61291;52.524;13.422;2022-07-06T01:47:23;16.20;76.30
5711;DHT22;61291;52.524;13.422;2022-07-06T01:49:49;16.10;76.30
5711;DHT22;61291;52.524;13.422;2022-07-06T01:52:15;16.20;76.40
5711;DHT22;61291;52.524;13.422;2022-07-06T01:54:41;16.10;76.10
5711;DHT22;61291;52.524;13.422;2022-07-06T01:57:06;16.10;76.10
5711;DHT22;61291;52.524;13.422;2022-07-06T01:59:32;16.20;76.30
5711;DHT22;61291;52.524;13.422;2022-07-06T02:01:58;16.30;75.90
5711;DHT22;61291;52.524;13.422;2022-07-06T02:04:23;16.40;75.50
5711;DHT22;61291;52.524;13.422;2022-07-06T02:06:49;16.60;75.30
5711;DHT22;61291;52.524;13.422;2022-07-06T02:09:14;16.70;74.80
5711;DHT22;61291;52.524;13.422;2022-07-06T02:11:42;16.70;74.50
5711;DHT22;61291;52.524;13.422;2022-07-06T02:14:08;16.80;74.50
5711;DHT22;61291;52.524;13.422;2022-07-06T02:16:34;16.80;74.20
5711;DHT22;61291;52.524;13.422;2022-07-06T02:18:59;16.90;73.90
5711;DHT22;61291;52.524;13.422;2022-07-06T02:21:25;16.90;73.80
5711;DHT22;61291;52.524;13.422;2022-07-06T02:23:50;17.00;73.70
5711;DHT22;61291;52.524;13.422;2022-07-06T02:26:16;17.00;74.40
5711;DHT22;61291;52.524;13.422;2022-07-06T02:28:42;16.90;74.90
5711;DHT22;61291;52.524;13.422;2022-07-06T02:31:07;16.90;75.80
5711;DHT22;61291;52.524;13.422;2022-07-06T02:33:33;16.70;77.90
5711;DHT22;61291;52.524;13.422;2022-07-06T02:35:58;16.40;80.60
5711;DHT22;61291;52.524;13.422;2022-07-06T02:38:24;16.20;82.10
5711;DHT22;61291;52.524;13.422;2022-07-06T02:40:49;16.00;84.70
5711;DHT22;61291;52.524;13.422;2022-07-06T02:43:15;15.80;87.00
5711;DHT22;61291;52.524;13.422;2022-07-06T02:45:40;15.60;88.70
5711;DHT22;61291;52.524;13.422;2022-07-06T02:48:06;15.50;90.30
5711;DHT22;61291;52.524;13.422;2022-07-06T02:50:31;15.40;90.00
5711;DHT22;61291;52.524;13.422;2022-07-06T02:52:57;15.40;91.00
5711;DHT22;61291;52.524;13.422;2022-07-06T02:55:24;15.40;91.50
5711;DHT22;61291;52.524;13.422;2022-07-06T02:57:49;15.40;91.60
5711;DHT22;61291;52.524;13.422;2022-07-06T03:00:15;15.40;92.00
5711;DHT22;61291;52.524;13.422;2022-07-06T03:02:41;15.40;92.30
5711;DHT22;61291;52.524;13.422;2022-07-06T03:05:07;15.40;92.70
5711;DHT22;61291;52.524;13.422;2022-07-06T03:07:32;15.40;93.10
5711;DHT22;61291;52.524;13.422;2022-07-06T03:09:58;15.40;93.00
5711;DHT22;61291;52.524;13.422;2022-07-06T03:12:23;15.40;93.50
5711;DHT22;61291;52.524;13.422;2022-07-06T03:14:49;15.40;93.50
5711;DHT22;61291;52.524;13.422;2022-07-06T03:17:14;15.40;93.20
5711;DHT22;61291;52.524;13.422;2022-07-06T03:19:40;15.40;93.40
5711;DHT22;61291;52.524;13.422;2022-07-06T03:22:05;15.50;93.80
5711;DHT22;61291;52.524;13.422;2022-07-06T03:24:31;15.50;93.90
5711;DHT22;61291;52.524;13.422;2022-07-06T03:26:56;15.60;94.10
5711;DHT22;61291;52.524;13.422;2022-07-06T03:29:22;15.60;94.40
5711;DHT22;61291;52.524;13.422;2022-07-06T03:31:47;15.60;94.40
5711;DHT22;61291;52.524;13.422;2022-07-06T03:34:13;15.70;94.50
5711;DHT22;61291;52.524;13.422;2022-07-06T03:36:39;15.70;94.00
5711;DHT22;61291;52.524;13.422;2022-07-06T03:39:05;15.70;95.60
5711;DHT22;61291;52.524;13.422;2022-07-06T03:41:31;15.70;94.50
5711;DHT22;61291;52.524;13.422;2022-07-06T03:43:57;15.70;94.40
5711;DHT22;61291;52.524;13.422;2022-07-06T03:46:23;15.60;94.50
5711;DHT22;61291;52.524;13.422;2022-07-06T03:48:49;15.70;94.50
5711;DHT22;61291;52.524;13.422;2022-07-06T03:51:14;15.70;95.90
5711;DHT22;61291;52.524;13.422;2022-07-06T03:53:40;15.80;94.40
5711;DHT22;61291;52.524;13.422;2022-07-06T03:56:05;15.90;94.50
5711;DHT22;61291;52.524;13.422;2022-07-06T03:58:49;16.00;94.70
5711;DHT22;61291;52.524;13.422;2022-07-06T04:01:15;16.20;94.40
5711;DHT22;61291;52.524;13.422;2022-07-06T04:03:40;16.40;93.10
5711;DHT22;61291;52.524;13.422;2022-07-06T04:06:06;16.70;93.00
5711;DHT22;61291;52.524;13.422;2022-07-06T04:08:32;16.80;92.10
5711;DHT22;61291;52.524;13.422;2022-07-06T04:10:57;16.80;91.30
5711;DHT22;61291;52.524;13.422;2022-07-06T04:13:23;16.80;90.70
5711;DHT22;61291;52.524;13.422;2022-07-06T04:15:51;16.90;90.70
5711;DHT22;61291;52.524;13.422;2022-07-06T04:18:16;17.10;90.50
5711;DHT22;61291;52.524;13.422;2022-07-06T04:20:42;17.50;90.40
5711;DHT22;61291;52.524;13.422;2022-07-06T04:23:07;18.50;88.00
5711;DHT22;61291;52.524;13.422;2022-07-06T04:25:34;19.70;84.20
5711;DHT22;61291;52.524;13.422;2022-07-06T04:27:59;20.60;80.80
5711;DHT22;61291;52.524;13.422;2022-07-06T04:30:25;21.00;79.30
5711;DHT22;61291;52.524;13.422;2022-07-06T04:32:50;20.80;76.30
5711;DHT22;61291;52.524;13.422;2022-07-06T04:35:16;19.90;75.30
5711;DHT22;61291;52.524;13.422;2022-07-06T04:37:42;18.90;76.60
5711;DHT22;61291;52.524;13.422;2022-07-06T04:40:07;18.30;77.80
5711;DHT22;61291;52.524;13.422;2022-07-06T04:42:33;17.90;80.10
5711;DHT22;61291;52.524;13.422;2022-07-06T04:44:59;18.20;79.70
5711;DHT22;61291;52.524;13.422;2022-07-06T04:47:25;18.90;78.70
5711;DHT22;61291;52.524;13.422;2022-07-06T04:49:51;19.20;77.30
5711;DHT22;61291;52.524;13.422;2022-07-06T04:52:17;19.30;76.60
5711;DHT22;61291;52.524;13.422;2022-07-06T04:54:43;19.70;75.40
5711;DHT22;61291;52.524;13.422;2022-07-06T04:57:10;20.20;75.00
5711;DHT22;61291;52.524;13.422;2022-07-06T04:59:37;20.40;72.20
5711;DHT22;61291;52.524;13.422;2022-07-06T05:02:03;20.00;72.60
5711;DHT22;61291;52.524;13.422;2022-07-06T05:04:28;19.90;73.00
5711;DHT22;61291;52.524;13.422;2022-07-06T05:06:54;19.60;73.50
5711;DHT22;61291;52.524;13.422;2022-07-06T05:09:19;19.50;73.90
5711;DHT22;61291;52.524;13.422;2022-07-06T05:11:44;19.30;74.50
5711;DHT22;61291;52.524;13.422;2022-07-06T05:14:10;19.30;74.60
5711;DHT22;61291;52.524;13.422;2022-07-06T05:16:37;19.30;74.60
5711;DHT22;61291;52.524;13.422;2022-07-06T05:19:04;19.40;74.80
5711;DHT22;61291;52.524;13.422;2022-07-06T05:21:30;19.40;74.50
5711;DHT22;61291;52.524;13.422;2022-07-06T05:23:58;19.40;74.20
5711;DHT22;61291;52.524;13.422;2022-07-06T05:26:23;19.20;74.10
5711;DHT22;61291;52.524;13.422;2022-07-06T05:28:49;19.10;73.90
5711;DHT22;61291;52.524;13.422;2022-07-06T05:31:14;19.40;74.00
5711;DHT22;61291;52.524;13.422;2022-07-06T05:33:39;19.80;73.50
5711;DHT22;61291;52.524;13.422;2022-07-06T05:36:05;20.20;72.90
5711;DHT22;61291;52.524;13.422;2022-07-06T05:38:31;20.30;71.80
5711;DHT22;61291;52.524;13.422;2022-07-06T05:40:57;21.70;70.70
5711;DHT22;61291;52.524;13.422;2022-07-06T05:43:23;23.10;67.70
5711;DHT22;61291;52.524;13.422;2022-07-06T05:45:48;25.00;65.00
5711;DHT22;61291;52.524;13.422;2022-07-06T05:48:15;26.40;62.10
5711;DHT22;61291;52.524;13.422;2022-07-06T05:51:01;27.70;59.20
5711;DHT22;61291;52.524;13.422;2022-07-06T05:53:26;26.80;58.00
5711;DHT22;61291;52.524;13.422;2022-07-06T05:55:52;28.00;57.00
5711;DHT22;61291;52.524;13.422;2022-07-06T05:58:17;28.70;55.90
5711;DHT22;61291;52.524;13.422;2022-07-06T06:00:43;29.40;55.00
5711;DHT22;61291;52.524;13.422;2022-07-06T06:03:08;30.60;54.40
5711;DHT22;61291;52.524;13.422;2022-07-06T06:05:34;30.50;53.10
5711;DHT22;61291;52.524;13.422;2022-07-06T06:08:00;30.60;52.50
5711;DHT22;61291;52.524;13.422;2022-07-06T06:10:27;30.10;52.30
5711;DHT22;61291;52.524;13.422;2022-07-06T06:12:53;31.10;51.40
5711;DHT22;61291;52.524;13.422;2022-07-06T06:15:22;32.00;51.10
5711;DHT22;61291;52.524;13.422;2022-07-06T06:17:47;31.60;49.50
5711;DHT22;61291;52.524;13.422;2022-07-06T06:20:15;31.80;50.30
5711;DHT22;61291;52.524;13.422;2022-07-06T06:22:47;32.40;50.20
5711;DHT22;61291;52.524;13.422;2022-07-06T06:25:15;32.20;49.80
5711;DHT22;61291;52.524;13.422;2022-07-06T06:27:41;31.70;50.00
5711;DHT22;61291;52.524;13.422;2022-07-06T06:30:07;31.80;50.40
5711;DHT22;61291;52.524;13.422;2022-07-06T06:32:36;32.70;49.90
5711;DHT22;61291;52.524;13.422;2022-07-06T06:35:02;33.60;49.40
5711;DHT22;61291;52.524;13.422;2022-07-06T06:37:28;34.10;48.50
5711;DHT22;61291;52.524;13.422;2022-07-06T06:39:55;34.20;48.30
5711;DHT22;61291;52.524;13.422;2022-07-06T06:42:21;33.20;47.50
5711;DHT22;61291;52.524;13.422;2022-07-06T06:44:46;31.30;49.70
5711;DHT22;61291;52.524;13.422;2022-07-06T06:47:12;31.10;50.20
5711;DHT22;61291;52.524;13.422;2022-07-06T06:49:37;32.30;49.60
5711;DHT22;61291;52.524;13.422;2022-07-06T06:52:03;32.90;49.00
5711;DHT22;61291;52.524;13.422;2022-07-06T06:54:29;32.20;49.10
5711;DHT22;61291;52.524;13.422;2022-07-06T06:56:54;32.50;49.20
5711;DHT22;61291;52.524;13.422;2022-07-06T06:59:20;33.20;49.10
5711;DHT22;61291;52.524;13.422;2022-07-06T07:01:45;33.00;48.50
5711;DHT22;61291;52.524;13.422;2022-07-06T07:04:11;32.80;48.30
5711;DHT22;61291;52.524;13.422;2022-07-06T07:06:37;32.30;48.30
5711;DHT22;61291;52.524;13.422;2022-07-06T07:09:02;31.00;49.30
5711;DHT22;61291;52.524;13.422;2022-07-06T07:11:28;30.50;50.10
5711;DHT22;61291;52.524;13.422;2022-07-06T07:13:53;31.30;49.90
5711;DHT22;61291;52.524;13.422;2022-07-06T07:16:19;30.50;49.50
5711;DHT22;61291;52.524;13.422;2022-07-06T07:18:45;29.90;50.20
5711;DHT22;61291;52.524;13.422;2022-07-06T07:21:10;31.00;50.30
5711;DHT22;61291;52.524;13.422;2022-07-06T07:23:36;31.30;49.70
5711;DHT22;61291;52.524;13.422;2022-07-06T07:26:01;28.80;50.20
5711;DHT22;61291;52.524;13.422;2022-07-06T07:28:27;28.10;51.50
5711;DHT22;61291;52.524;13.422;2022-07-06T07:30:52;28.60;51.40
5711;DHT22;61291;52.524;13.422;2022-07-06T07:33:18;28.50;50.10
5711;DHT22;61291;52.524;13.422;2022-07-06T07:35:44;27.50;50.70
5711;DHT22;61291;52.524;13.422;2022-07-06T07:38:09;27.20;50.80
5711;DHT22;61291;52.524;13.422;2022-07-06T07:40:35;26.10;51.70
5711;DHT22;61291;52.524;13.422;2022-07-06T07:43:01;25.30;52.20
5711;DHT22;61291;52.524;13.422;2022-07-06T07:45:26;24.70;53.30
5711;DHT22;61291;52.524;13.422;2022-07-06T07:47:52;25.20;53.00
5711;DHT22;61291;52.524;13.422;2022-07-06T07:50:18;24.80;53.40
5711;DHT22;61291;52.524;13.422;2022-07-06T07:52:43;25.20;53.40
5711;DHT22;61291;52.524;13.422;2022-07-06T07:55:09;24.00;53.40
5711;DHT22;61291;52.524;13.422;2022-07-06T07:57:35;24.60;53.10
5711;DHT22;61291;52.524;13.422;2022-07-06T08:00:00;25.60;52.60
5711;DHT22;61291;52.524;13.422;2022-07-06T08:02:26;26.70;52.00
5711;DHT22;61291;52.524;13.422;2022-07-06T08:04:51;26.80;51.20
5711;DHT22;61291;52.524;13.422;2022-07-06T08:07:17;25.20;52.70
5711;DHT22;61291;52.524;13.422;2022-07-06T08:09:42;24.60;53.50
5711;DHT22;61291;52.524;13.422;2022-07-06T08:12:08;24.90;53.10
5711;DHT22;61291;52.524;13.422;2022-07-06T08:14:34;24.70;53.10
5711;DHT22;61291;52.524;13.422;2022-07-06T08:16:59;24.80;53.00
5711;DHT22;61291;52.524;13.422;2022-07-06T08:19:28;25.10;53.20
5711;DHT22;61291;52.524;13.422;2022-07-06T08:21:53;26.30;52.60
5711;DHT22;61291;52.524;13.422;2022-07-06T08:24:19;26.30;51.80
5711;DHT22;61291;52.524;13.422;2022-07-06T08:26:45;26.30;51.90
5711;DHT22;61291;52.524;13.422;2022-07-06T08:29:12;25.90;52.10
5711;DHT22;61291;52.524;13.422;2022-07-06T08:31:40;25.60;52.40
5711;DHT22;61291;52.524;13.422;2022-07-06T08:34:06;25.40;52.70
5711;DHT22;61291;52.524;13.422;2022-07-06T08:36:31;25.40;53.00
5711;DHT22;61291;52.524;13.422;2022-07-06T08:38:57;25.40;53.10
5711;DHT22;61291;52.524;13.422;2022-07-06T08:41:25;25.50;53.30
5711;DHT22;61291;52.524;13.422;2022-07-06T08:43:52;25.30;53.10
5711;DHT22;61291;52.524;13.422;2022-07-06T08:46:19;24.80;53.50
5711;DHT22;61291;52.524;13.422;2022-07-06T08:48:46;24.60;53.30
5711;DHT22;61291;52.524;13.422;2022-07-06T08:51:13;24.20;53.50
5711;DHT22;61291;52.524;13.422;2022-07-06T08:53:41;23.90;53.60
5711;DHT22;61291;52.524;13.422;2022-07-06T08:56:07;23.60;53.10
5711;DHT22;61291;52.524;13.422;2022-07-06T08:58:33;23.70;52.90
5711;DHT22;61291;52.524;13.422;2022-07-06T09:01:00;23.90;52.80
5711;DHT22;61291;52.524;13.422;2022-07-06T09:03:27;24.50;52.60
5711;DHT22;61291;52.524;13.422;2022-07-06T09:05:52;24.60;51.80
5711;DHT22;61291;52.524;13.422;2022-07-06T09:08:22;25.30;51.50
5711;DHT22;61291;52.524;13.422;2022-07-06T09:10:49;26.00;50.50
5711;DHT22;61291;52.524;13.422;2022-07-06T09:13:15;26.40;49.80
5711;DHT22;61291;52.524;13.422;2022-07-06T09:15:40;25.00;50.10
5711;DHT22;61291;52.524;13.422;2022-07-06T09:18:07;24.30;51.10
5711;DHT22;61291;52.524;13.422;2022-07-06T09:20:33;25.30;50.60
5711;DHT22;61291;52.524;13.422;2022-07-06T09:23:00;25.90;49.90
5711;DHT22;61291;52.524;13.422;2022-07-06T09:25:27;26.70;49.10
5711;DHT22;61291;52.524;13.422;2022-07-06T09:27:53;27.10;48.50
5711;DHT22;61291;52.524;13.422;2022-07-06T09:30:21;27.50;48.10
5711;DHT22;61291;52.524;13.422;2022-07-06T09:32:55;28.20;47.70
5711;DHT22;61291;52.524;13.422;2022-07-06T09:35:39;28.40;47.10
5711;DHT22;61291;52.524;13.422;2022-07-06T09:38:13;27.10;46.50
5711;DHT22;61291;52.524;13.422;2022-07-06T09:40:40;26.40;46.90
5711;DHT22;61291;52.524;13.422;2022-07-06T09:43:17;25.60;47.60
5711;DHT22;61291;52.524;13.422;2022-07-06T09:45:46;25.30;48.50
5711;DHT22;61291;52.524;13.422;2022-07-06T09:48:20;24.90;48.80
5711;DHT22;61291;52.524;13.422;2022-07-06T09:50:54;25.10;48.80
5711;DHT22;61291;52.524;13.422;2022-07-06T09:53:22;25.50;48.70
5711;DHT22;61291;52.524;13.422;2022-07-06T09:55:49;24.90;49.40
5711;DHT22;61291;52.524;13.422;2022-07-06T09:58:16;24.90;49.70
5711;DHT22;61291;52.524;13.422;2022-07-06T10:00:43;25.10;50.00
5711;DHT22;61291;52.524;13.422;2022-07-06T10:03:10;25.60;50.00
5711;DHT22;61291;52.524;13.422;2022-07-06T10:05:37;25.80;49.60
5711;DHT22;61291;52.524;13.422;2022-07-06T10:08:06;25.70;49.40
5711;DHT22;61291;52.524;13.422;2022-07-06T10:10:35;25.70;49.50
5711;DHT22;61291;52.524;13.422;2022-07-06T10:13:01;25.30;49.60
5711;DHT22;61291;52.524;13.422;2022-07-06T10:15:29;25.10;49.70
5711;DHT22;61291;52.524;13.422;2022-07-06T10:17:59;25.70;49.70
5711;DHT22;61291;52.524;13.422;2022-07-06T10:20:28;26.00;49.50
5711;DHT22;61291;52.524;13.422;2022-07-06T10:22:54;26.70;49.00
5711;DHT22;61291;52.524;13.422;2022-07-06T10:25:22;26.40;49.00
5711;DHT22;61291;52.524;13.422;2022-07-06T10:27:48;25.20;50.60
5711;DHT22;61291;52.524;13.422;2022-07-06T10:30:15;24.70;51.50
5711;DHT22;61291;52.524;13.422;2022-07-06T10:32:43;25.30;51.10
5711;DHT22;61291;52.524;13.422;2022-07-06T10:35:09;25.40;50.80
5711;DHT22;61291;52.524;13.422;2022-07-06T10:37:35;24.80;51.50
5711;DHT22;61291;52.524;13.422;2022-07-06T10:40:00;25.60;50.90
5711;DHT22;61291;52.524;13.422;2022-07-06T10:42:49;25.80;50.90
5711;DHT22;61291;52.524;13.422;2022-07-06T10:50:53;25.80;49.00
5711;DHT22;61291;52.524;13.422;2022-07-06T10:53:25;25.70;49.50
5711;DHT22;61291;52.524;13.422;2022-07-06T10:55:53;26.10;49.30
5711;DHT22;61291;52.524;13.422;2022-07-06T10:58:41;26.60;48.80
5711;DHT22;61291;52.524;13.422;2022-07-06T11:01:11;26.80;48.50
5711;DHT22;61291;52.524;13.422;2022-07-06T11:06:13;27.00;48.50
5711;DHT22;61291;52.524;13.422;2022-07-06T11:14:07;27.30;48.30
5711;DHT22;61291;52.524;13.422;2022-07-06T11:16:47;27.40;48.40
5711;DHT22;61291;52.524;13.422;2022-07-06T11:19:26;28.00;48.30
5711;DHT22;61291;52.524;13.422;2022-07-06T11:22:08;28.40;47.50
5711;DHT22;61291;52.524;13.422;2022-07-06T11:24:37;27.40;48.00
5711;DHT22;61291;52.524;13.422;2022-07-06T11:27:03;27.00;48.30
5711;DHT22;61291;52.524;13.422;2022-07-06T11:29:30;26.50;49.20
5711;DHT22;61291;52.524;13.422;2022-07-06T11:31:58;26.90;49.10
5711;DHT22;61291;52.524;13.422;2022-07-06T11:34:31;27.20;49.00
5711;DHT22;61291;52.524;13.422;2022-07-06T11:36:58;27.00;49.10
5711;DHT22;61291;52.524;13.422;2022-07-06T11:39:28;27.30;48.80
5711;DHT22;61291;52.524;13.422;2022-07-06T11:42:04;26.80;48.20
5711;DHT22;61291;52.524;13.422;2022-07-06T11:44:30;26.70;48.70
5711;DHT22;61291;52.524;13.422;2022-07-06T11:46:56;27.10;48.80
5711;DHT22;61291;52.524;13.422;2022-07-06T11:49:25;27.00;49.10
5711;DHT22;61291;52.524;13.422;2022-07-06T11:51:51;26.60;49.40
5711;DHT22;61291;52.524;13.422;2022-07-06T11:54:24;27.50;48.60
5711;DHT22;61291;52.524;13.422;2022-07-06T11:56:59;27.80;46.90
5711;DHT22;61291;52.524;13.422;2022-07-06T11:59:30;28.00;46.40
5711;DHT22;61291;52.524;13.422;2022-07-06T12:02:01;27.60;46.70
5711;DHT22;61291;52.524;13.422;2022-07-06T12:04:28;27.70;46.70
5711;DHT22;61291;52.524;13.422;2022-07-06T12:06:59;27.90;47.00
5711;DHT22;61291;52.524;13.422;2022-07-06T12:09:24;27.30;46.70
5711;DHT22;61291;52.524;13.422;2022-07-06T12:11:51;26.30;48.80
5711;DHT22;61291;52.524;13.422;2022-07-06T12:14:19;26.30;49.10
5711;DHT22;61291;52.524;13.422;2022-07-06T12:16:46;27.00;48.80
5711;DHT22;61291;52.524;13.422;2022-07-06T12:19:13;27.90;48.30
5711;DHT22;61291;52.524;13.422;2022-07-06T12:24:09;28.40;47.50
5711;DHT22;61291;52.524;13.422;2022-07-06T12:26:40;28.70;47.30
5711;DHT22;61291;52.524;13.422;2022-07-06T12:29:09;27.90;47.50
5711;DHT22;61291;52.524;13.422;2022-07-06T12:31:50;27.60;47.90
5711;DHT22;61291;52.524;13.422;2022-07-06T12:34:18;26.90;48.70
5711;DHT22;61291;52.524;13.422;2022-07-06T12:36:50;26.60;49.30
5711;DHT22;61291;52.524;13.422;2022-07-06T12:39:19;27.30;48.90
5711;DHT22;61291;52.524;13.422;2022-07-06T12:42:01;28.00;48.50
5711;DHT22;61291;52.524;13.422;2022-07-06T12:44:27;28.80;47.90
5711;DHT22;61291;52.524;13.422;2022-07-06T12:47:06;29.10;47.10
5711;DHT22;61291;52.524;13.422;2022-07-06T12:49:34;29.60;46.80
5711;DHT22;61291;52.524;13.422;2022-07-06T12:52:02;29.50;46.50
5711;DHT22;61291;52.524;13.422;2022-07-06T12:54:50;29.50;46.50
5711;DHT22;61291;52.524;13.422;2022-07-06T12:57:19;29.70;45.80
5711;DHT22;61291;52.524;13.422;2022-07-06T13:00:00;29.80;45.60
5711;DHT22;61291;52.524;13.422;2022-07-06T13:02:33;29.50;45.80
5711;DHT22;61291;52.524;13.422;2022-07-06T13:05:09;29.50;46.10
5711;DHT22;61291;52.524;13.422;2022-07-06T13:07:37;29.70;46.20
5711;DHT22;61291;52.524;13.422;2022-07-06T13:10:27;30.00;45.90
5711;DHT22;61291;52.524;13.422;2022-07-06T13:12:56;30.40;45.40
5711;DHT22;61291;52.524;13.422;2022-07-06T13:15:24;30.70;45.40
5711;DHT22;61291;52.524;13.422;2022-07-06T13:17:50;30.20;45.60
5711;DHT22;61291;52.524;13.422;2022-07-06T13:20:16;29.70;45.40
5711;DHT22;61291;52.524;13.422;2022-07-06T13:22:43;29.60;45.70
5711;DHT22;61291;52.524;13.422;2022-07-06T13:25:08;29.70;45.50
5711;DHT22;61291;52.524;13.422;2022-07-06T13:27:34;29.30;45.40
5711;DHT22;61291;52.524;13.422;2022-07-06T13:30:00;29.30;45.40
5711;DHT22;61291;52.524;13.422;2022-07-06T13:32:26;29.20;45.60
5711;DHT22;61291;52.524;13.422;2022-07-06T13:34:51;28.10;45.80
5711;DHT22;61291;52.524;13.422;2022-07-06T13:37:19;27.80;46.70
5711;DHT22;61291;52.524;13.422;2022-07-06T13:39:45;27.40;46.70
5711;DHT22;61291;52.524;13.422;2022-07-06T13:42:11;28.20;46.50
5711;DHT22;61291;52.524;13.422;2022-07-06T13:44:36;29.00;45.90
5711;DHT22;61291;52.524;13.422;2022-07-06T13:47:02;29.40;45.50
5711;DHT22;61291;52.524;13.422;2022-07-06T13:49:28;29.80;45.10
5711;DHT22;61291;52.524;13.422;2022-07-06T13:51:53;30.00;44.70
5711;DHT22;61291;52.524;13.422;2022-07-06T13:54:20;29.90;44.30
5711;DHT22;61291;52.524;13.422;2022-07-06T13:56:46;29.70;44.60
5711;DHT22;61291;52.524;13.422;2022-07-06T13:59:11;29.30;44.50
5711;DHT22;61291;52.524;13.422;2022-07-06T14:01:37;28.50;45.20
5711;DHT22;61291;52.524;13.422;2022-07-06T14:04:02;28.40;45.20
5711;DHT22;61291;52.524;13.422;2022-07-06T14:06:28;28.50;45.40
5711;DHT22;61291;52.524;13.422;2022-07-06T14:08:53;28.60;45.50
5711;DHT22;61291;52.524;13.422;2022-07-06T14:11:19;28.90;45.40
5711;DHT22;61291;52.524;13.422;2022-07-06T14:13:44;28.10;45.20
5711;DHT22;61291;52.524;13.422;2022-07-06T14:16:10;27.90;44.60
5711;DHT22;61291;52.524;13.422;2022-07-06T14:18:36;27.60;44.80
5711;DHT22;61291;52.524;13.422;2022-07-06T14:21:02;27.20;45.40
5711;DHT22;61291;52.524;13.422;2022-07-06T14:23:29;27.40;45.50
5711;DHT22;61291;52.524;13.422;2022-07-06T14:25:55;26.90;46.00
5711;DHT22;61291;52.524;13.422;2022-07-06T14:28:21;26.60;46.60
5711;DHT22;61291;52.524;13.422;2022-07-06T14:30:47;26.00;47.40
5711;DHT22;61291;52.524;13.422;2022-07-06T14:33:14;26.40;47.20
5711;DHT22;61291;52.524;13.422;2022-07-06T14:35:43;26.60;47.50
5711;DHT22;61291;52.524;13.422;2022-07-06T14:38:09;25.80;48.30
5711;DHT22;61291;52.524;13.422;2022-07-06T14:40:37;25.70;48.80
5711;DHT22;61291;52.524;13.422;2022-07-06T14:43:03;26.40;48.30
5711;DHT22;61291;52.524;13.422;2022-07-06T14:45:29;27.00;48.00
5711;DHT22;61291;52.524;13.422;2022-07-06T14:47:55;26.60;47.90
5711;DHT22;61291;52.524;13.422;2022-07-06T14:50:21;26.00;48.80
5711;DHT22;61291;52.524;13.422;2022-07-06T14:52:49;25.70;49.10
5711;DHT22;61291;52.524;13.422;2022-07-06T14:55:14;25.90;49.00
5711;DHT22;61291;52.524;13.422;2022-07-06T14:57:40;25.50;49.50
5711;DHT22;61291;52.524;13.422;2022-07-06T15:00:06;25.20;49.60
5711;DHT22;61291;52.524;13.422;2022-07-06T15:02:32;24.40;50.40
5711;DHT22;61291;52.524;13.422;2022-07-06T15:04:58;24.10;50.70
5711;DHT22;61291;52.524;13.422;2022-07-06T15:07:23;23.90;51.20
5711;DHT22;61291;52.524;13.422;2022-07-06T15:09:49;23.70;51.50
5711;DHT22;61291;52.524;13.422;2022-07-06T15:12:14;23.10;52.60
5711;DHT22;61291;52.524;13.422;2022-07-06T15:14:40;22.90;52.60
5711;DHT22;61291;52.524;13.422;2022-07-06T15:17:06;22.80;53.10
5711;DHT22;61291;52.524;13.422;2022-07-06T15:19:31;22.60;53.70
5711;DHT22;61291;52.524;13.422;2022-07-06T15:21:57;22.30;54.20
5711;DHT22;61291;52.524;13.422;2022-07-06T15:24:23;21.90;54.80
5711;DHT22;61291;52.524;13.422;2022-07-06T15:26:50;21.80;54.80
5711;DHT22;61291;52.524;13.422;2022-07-06T15:29:15;21.50;55.50
5711;DHT22;61291;52.524;13.422;2022-07-06T15:31:41;21.40;55.70
5711;DHT22;61291;52.524;13.422;2022-07-06T15:34:06;21.30;56.00
5711;DHT22;61291;52.524;13.422;2022-07-06T15:36:32;21.00;56.30
5711;DHT22;61291;52.524;13.422;2022-07-06T15:38:57;21.10;56.30
5711;DHT22;61291;52.524;13.422;2022-07-06T15:41:23;21.30;56.30
5711;DHT22;61291;52.524;13.422;2022-07-06T15:43:48;21.20;56.20
5711;DHT22;61291;52.524;13.422;2022-07-06T15:46:14;21.30;56.20